Flight Track Log - Related Links

Times and Time Zones

All times are in EDT time to prevent confusion due to time zone crossing. See the AAL2007 flight status page for this flight to view local times or setup timezone preferences in your user account.

Time Position Orientation Groundspeed Altitude Reporting Facility
EDT Latitude Longitude Course Direction KTS MPH feet Rate Location/Type
Mon 18:02:49 41.9833 -87.9833 207° Southwest 189 217 2,900  Level Chicago TRACON
Mon 18:03:49 41.9333 -88.0333 217° Southwest 249 287 4,500 1,096 Climbing Chicago TRACON
Mon 18:04:44 41.8667 -88.0500 191° South 273 314 5,000 378 Climbing Chicago TRACON
Mon 18:06:12 41.7617 -88.0394 176° South 265 305 5,400 993 Climbing Chicago Center
Mon 18:07:15 41.6981 -88.0892 210° Southwest 267 307 7,500 2,256 Climbing Chicago Center
Mon 18:08:00 41.4340 -88.4519 207° Southwest  Level Estimated
Mon 18:08:17 41.6192 -88.1108 192° South 290 334 10,100  Level Chicago Center
Mon 18:09:19 41.5353 -88.1375 193° South 313 360 12,300 2,081 Climbing Chicago Center
Mon 18:10:21 41.4297 -88.1742 195° South 341 392 14,400 1,935 Climbing Chicago Center
Mon 18:11:23 41.3303 -88.2144 197° South 382 440 16,300 1,887 Climbing Chicago Center
Mon 18:12:25 41.2278 -88.2606 199° South 392 451 18,300 1,887 Climbing Chicago Center
Mon 18:13:27 41.1219 -88.3083 199° South 404 465 20,200 1,887 Climbing Chicago Center
Mon 18:14:29 40.9889 -88.3683 199° South 421 484 22,200 1,694 Climbing Chicago Center
Mon 18:15:31 40.8750 -88.4183 198° South 429 494 23,700 1,452 Climbing Chicago Center
Mon 18:16:33 40.7578 -88.4706 199° South 442 509 25,200 1,452 Climbing Chicago Center
Mon 18:17:35 40.6389 -88.5242 199° South 450 518 26,700 1,355 Climbing Chicago Center
Mon 18:18:37 40.5172 -88.5772 198° South 458 527 28,000 1,306 Climbing Chicago Center
Mon 18:19:39 40.3692 -88.6414 198° South 465 535 29,400 1,200 Climbing Chicago Center
Mon 18:20:42 40.2578 -88.7417 215° Southwest 484 557 30,500 1,152 Climbing Chicago Center
Mon 18:21:44 40.1672 -88.8581 225° Southwest 463 533 31,800 726 Climbing Chicago Center
Mon 18:22:46 40.0742 -88.9750 224° Southwest 462 532 32,000 97 Climbing Chicago Center
Mon 18:23:48 39.9803 -89.0919 224° Southwest 463 533 32,000  Level Chicago Center
Mon 18:24:34 39.9050 -89.1903 225° Southwest 464 534 32,000  Level Kansas Center
Mon 18:25:38 39.8117 -89.3061 224° Southwest 462 532 32,000  Level Kansas Center
Mon 18:26:38 39.7192 -89.4242 224° Southwest 463 533 32,000  Level Kansas Center
Mon 18:27:42 39.6111 -89.5572 224° Southwest 461 531 32,000  Level Kansas Center
Mon 18:28:43 39.5186 -89.6733 224° Southwest 462 532 32,000  Level Kansas Center
Mon 18:29:44 39.4253 -89.7897 224° Southwest 465 535 32,000  Level Kansas Center
Mon 18:30:47 39.3317 -89.9053 224° Southwest 467 537 32,000  Level Kansas Center
Mon 18:31:49 39.2386 -90.0214 224° Southwest 467 537 32,000  Level Kansas Center
Mon 18:32:52 39.1442 -90.1369 224° Southwest 468 539 32,000  Level Kansas Center
Mon 18:33:54 39.0317 -90.2764 224° Southwest 471 542 32,000  Level Kansas Center
Mon 18:34:54 38.9367 -90.3922 224° Southwest 473 544 32,000  Level Kansas Center
Mon 18:35:58 38.8467 -90.5044 224° Southwest 469 540 32,000  Level Kansas Center
Mon 18:36:59 38.7472 -90.6128 220° Southwest 464 534 32,000  Level Kansas Center
Mon 18:38:02 38.6289 -90.7511 222° Southwest 483 556 32,000  Level Kansas Center
Mon 18:39:03 38.5317 -90.8614 222° Southwest 477 549 32,000  Level Kansas Center
Mon 18:40:06 38.4333 -90.9758 222° Southwest 478 550 32,000  Level Kansas Center
Mon 18:41:07 38.3350 -91.0858 221° Southwest 476 548 32,000  Level Kansas Center
Mon 18:42:08 38.2375 -91.1958 222° Southwest 472 543 32,000  Level Kansas Center
Mon 18:43:11 38.1333 -91.3131 222° Southwest 471 542 32,000  Level Kansas Center
Mon 18:44:12 38.0361 -91.4228 222° Southwest 467 537 32,000  Level Kansas Center
Mon 18:45:16 37.9192 -91.5564 222° Southwest 469 540 32,000  Level Kansas Center
Mon 18:46:17 37.8214 -91.6658 221° Southwest 467 537 32,000  Level Kansas Center
Mon 18:47:20 37.7228 -91.7750 221° Southwest 467 537 32,000  Level Kansas Center
Mon 18:48:20 37.6261 -91.8828 221° Southwest 462 532 32,000  Level Kansas Center
Mon 18:49:25 37.5294 -91.9925 222° Southwest 462 532 32,000  Level Kansas Center
Mon 18:50:26 37.4306 -92.1011 221° Southwest 465 535 32,000  Level Kansas Center
Mon 18:51:27 37.3322 -92.2108 222° Southwest 468 539 32,000  Level Kansas Center
Mon 18:52:30 37.2361 -92.3158 221° Southwest 460 529 32,000  Level Kansas Center
Mon 18:53:31 37.1419 -92.4197 221° Southwest 453 521 32,000  Level Kansas Center
Mon 18:54:33 37.0289 -92.5406 220° Southwest 446 513 32,000  Level Kansas Center
Mon 18:55:34 36.9342 -92.6417 220° Southwest 445 512 32,000  Level Kansas Center
Mon 18:56:38 36.8397 -92.7431 221° Southwest 447 514 32,000  Level Kansas Center
Mon 18:57:39 36.7456 -92.8444 221° Southwest 446 513 32,000  Level Kansas Center
Mon 18:58:39 36.6497 -92.9439 220° Southwest 448 516 32,000  Level Kansas Center
Mon 18:59:44 36.5472 -93.0550 221° Southwest 449 517 32,000  Level Kansas Center
Mon 19:00:44 36.4539 -93.1558 221° Southwest 447 514 32,000  Level Kansas Center
Mon 19:01:47 36.3594 -93.2547 220° Southwest 447 514 32,000  Level Kansas Center
Mon 19:02:48 36.2639 -93.3564 221° Southwest 450 518 32,000  Level Kansas Center
Mon 19:03:52 36.1694 -93.4589 221° Southwest 453 521 32,000  Level Kansas Center
Mon 19:04:53 36.0558 -93.5769 220° Southwest 450 518 32,000  Level Kansas Center
Mon 19:05:53 35.9614 -93.6767 221° Southwest 450 518 32,000  Level Kansas Center
Mon 19:06:58 35.8664 -93.7758 220° Southwest 450 518 32,000  Level Kansas Center
Mon 19:08:05 35.7453 -93.9072 221° Southwest 452 520 32,000  Level Memphis Center
Mon 19:09:05 35.6467 -94.0025 218° Southwest 452 520 32,000  Level Memphis Center
Mon 19:10:05 35.5606 -94.0958 221° Southwest 459 528 32,000  Level Memphis Center
Mon 19:11:05 35.4636 -94.1933 219° Southwest 459 528 32,000  Level Memphis Center
Mon 19:12:05 35.3628 -94.2881 217° Southwest 459 528 32,000  Level Memphis Center
Mon 19:14:10 35.1442 -94.4583 213° Southwest 450 518 32,000  Level Fort Center
Mon 19:15:10 35.0356 -94.5406 212° Southwest 455 524 32,000  Level Fort Center
Mon 19:16:10 34.9289 -94.6203 212° Southwest 455 524 32,000  Level Fort Center
Mon 19:17:10 34.8119 -94.7150 214° Southwest 455 524 32,000  Level Fort Center
Mon 19:18:10 34.7053 -94.7967 212° Southwest 455 524 32,000  Level Fort Center
Mon 19:19:10 34.5964 -94.8783 212° Southwest 455 524 32,000  Level Fort Center
Mon 19:20:10 34.4894 -94.9569 211° Southwest 455 524 32,000  Level Fort Center
Mon 19:21:10 34.3844 -95.0331 211° Southwest 455 524 32,000  Level Fort Center
Mon 19:22:10 34.2733 -95.1189 213° Southwest 462 532 32,000  Level Fort Center
Mon 19:23:10 34.1642 -95.1972 211° Southwest 462 532 32,000  Level Fort Center
Mon 19:24:10 34.0572 -95.2775 212° Southwest 468 539 32,000  Level Fort Center
Mon 19:25:10 33.9478 -95.3578 211° Southwest 462 532 32,000  Level Fort Center
Mon 19:26:10 33.8386 -95.4381 211° Southwest 467 537 32,000  Level Fort Center
Mon 19:27:10 33.7314 -95.5203 213° Southwest 467 537 32,000  Level Fort Center
Mon 19:28:10 33.6342 -95.5872 210° Southwest 456 525 32,000 -200 Level Fort Center
Mon 19:29:10 33.5083 -95.6794 211° Southwest 456 525 31,600 -950 Descending Fort Center
Mon 19:30:10 33.4008 -95.7589 212° Southwest 469 540 30,100 -800 Descending Fort Center
Mon 19:31:10 33.2889 -95.8356 210° Southwest 469 540 30,000 -50 Descending Fort Center
Mon 19:32:10 33.1814 -95.9142 211° Southwest 463 533 30,000  Level Fort Center
Mon 19:33:10 33.0697 -95.9931 211° Southwest 468 539 30,000  Level Fort Center
Mon 19:34:10 32.9600 -96.0739 212° Southwest 468 539 30,000  Level Fort Center
Mon 19:35:10 32.8481 -96.1522 210° Southwest 468 539 30,000  Level Fort Center
Mon 19:36:10 32.7422 -96.2328 213° Southwest 468 539 30,000  Level Fort Center
Mon 19:37:10 32.6322 -96.3083 210° Southwest 468 539 30,000  Level Fort Center
Mon 19:38:10 32.5203 -96.3883 211° Southwest 468 539 30,000  Level Fort Center
Mon 19:39:10 32.4103 -96.4661 211° Southwest 468 539 30,000 -50 Level Fort Center
Mon 19:40:10 32.3022 -96.5433 211° Southwest 463 533 29,900 -800 Descending Fort Center
Mon 19:41:10 32.1919 -96.6206 211° Southwest 463 533 28,400 -1,500 Descending Fort Center
Mon 19:42:10 32.0819 -96.6975 211° Southwest 463 533 26,900 -1,450 Descending Fort Center
Mon 19:43:10 31.9717 -96.7742 211° Southwest 463 533 25,500 -1,050 Descending Fort Center
Mon 19:44:10 31.8822 -96.8383 211° Southwest 451 519 24,800 -691 Descending Fort Center
Mon 19:45:29 31.7483 -96.9322 211° Southwest 409 471 23,900 -814 Descending Houston Center
Mon 19:46:30 31.6511 -96.9997 211° Southwest 404 465 22,900 -927 Descending Houston Center
Mon 19:47:32 31.5536 -97.0667 210° Southwest 401 461 22,000 -435 Descending Houston Center
Mon 19:48:34 31.4489 -97.1142 201° Southwest 401 461 22,000 -146 Level Houston Center
Mon 19:49:35 31.3411 -97.1567 199° South 403 464 21,700 -878 Descending Houston Center
Mon 19:50:37 31.2317 -97.1997 199° South 408 470 20,200 -1,694 Descending Houston Center
Mon 19:51:39 31.1100 -97.2475 199° South 395 455 18,200 -1,902 Descending Houston Center
Mon 19:52:40 31.0111 -97.2867 199° South 378 435 16,300 -1,756 Descending Houston Center
Mon 19:53:42 30.9161 -97.3244 199° South 377 434 14,600 -1,742 Descending Houston Center
Mon 19:54:44 30.8219 -97.3592 198° South 360 414 12,700 -1,902 Descending Houston Center
Mon 19:55:45 30.7431 -97.4261 216° Southwest 356 410 10,700 -1,268 Descending Houston Center
Mon 19:56:47 30.6753 -97.5028 224° Southwest 341 392 10,100 -726 Descending Houston Center
Mon 19:57:49 30.6131 -97.5789 226° Southwest 289 333 9,200 -1,220 Descending Houston Center
Mon 19:58:50 30.5642 -97.6369 226° Southwest 260 299 7,600 -1,707 Descending Houston Center
Mon 19:59:52 30.5028 -97.6742 208° Southwest 247 284 5,700 -1,452 Descending Houston Center
Mon 20:00:54 30.4414 -97.6847 188° South 235 270 4,600 -1,016 Descending Houston Center
Mon 20:01:56 30.3775 -97.6844 180° South 230 265 3,600 -1,024 Descending Houston Center
Mon 20:02:57 30.3197 -97.6817 178° South 213 245 2,500 -878 Descending Houston Center
Mon 20:03:59 30.2611 -97.6800 179° South 199 229 1,800 -726 Descending Houston Center
Mon 20:05:01 30.2292 -97.6783 177° South 160 184 1,000 -774 Descending Houston Center

Login

Don't have an account? Register now (free) for customized features, flight alerts, and more!